Meteorología y climatología de Navarra
Datos de la estación - Meteo Navarra

Estación de Carrascal GN

Altitud 568 m.


Datos desde el 03/12/2019 hasta el 04/12/2019 en horario solar
Los datos son PROVISIONALES

Anterior Página 1 de 1 Siguiente Descargar: Formato para Excel 2000 o superior   Formato csv   Formato para OpenOffice Calc
Fecha Temperatura Humedad relativa Radiación global Insolación Precipitación Vel. viento 10 m Vel. viento 10 m Dir. viento 10 m
ºC % W/m² s l/m² m/s km/h º
03/12/2019 0:00 2.4 91 0.0 0 0.0 6.6 23.8 13
03/12/2019 0:10 2.5 91 0.0 0 0.0 7.2 25.8 8
03/12/2019 0:20 2.4 90 0.0 0 0.0 7.4 26.5 14
03/12/2019 0:30 2.4 90 0.0 0 0.0 7.8 27.9 14
03/12/2019 0:40 2.4 88 0.0 0 0.0 9.3 33.4 14
03/12/2019 0:50 2.1 89 0.0 0 0.0 9.1 32.8 11
03/12/2019 1:00 2.2 89 0.0 0 0.0 8.9 31.9 14
03/12/2019 1:10 2.1 88 0.0 0 0.0 8.9 31.9 16
03/12/2019 1:20 2.2 87 0.0 0 0.0 9.0 32.4 18
03/12/2019 1:30 2.3 86 0.0 0 0.0 9.4 34.0 18
03/12/2019 1:40 2.2 87 0.0 0 0.0 9.7 35.0 16
03/12/2019 1:50 2.2 87 0.0 0 0.0 9.4 33.8 14
03/12/2019 2:00 2.1 88 0.0 0 0.0 8.6 31.0 19
03/12/2019 2:10 2.1 88 0.0 0 0.0 6.7 24.2 17
03/12/2019 2:20 2.1 88 0.0 0 0.0 7.4 26.7 12
03/12/2019 2:30 2.2 87 0.0 0 0.0 8.1 29.1 11
03/12/2019 2:40 2.2 86 0.0 0 0.0 8.9 32.0 8
03/12/2019 2:50 2.2 85 0.0 0 0.0 8.9 32.0 7
03/12/2019 3:00 2.2 86 0.0 0 0.0 8.3 29.7 8
03/12/2019 3:10 2.3 85 0.0 0 0.0 8.8 31.6 8
03/12/2019 3:20 2.3 85 0.0 0 0.0 8.9 32.0 10
03/12/2019 3:30 2.3 86 0.0 0 0.0 7.7 27.6 10
03/12/2019 3:40 2.4 86 0.0 0 0.0 8.1 29.1 6
03/12/2019 3:50 2.4 86 0.0 0 0.0 8.7 31.3 7
03/12/2019 4:00 2.4 86 0.0 0 0.0 9.1 32.8 9
03/12/2019 4:10 2.3 86 0.0 0 0.0 8.2 29.4 10
03/12/2019 4:20 2.3 87 0.0 0 0.0 8.5 30.7 10
03/12/2019 4:30 2.3 88 0.0 0 0.0 9.0 32.4 10
03/12/2019 4:40 2.3 88 0.0 0 0.0 10.2 36.8 8
03/12/2019 4:50 2.2 89 0.0 0 0.0 10.0 35.8 8
03/12/2019 5:00 2.2 90 0.0 0 0.0 9.9 35.6 9
03/12/2019 5:10 2.2 89 0.0 0 0.0 9.6 34.4 8
03/12/2019 5:20 2.2 89 0.0 0 0.0 9.2 33.0 9
03/12/2019 5:30 2.3 88 0.0 0 0.0 9.8 35.2 10
03/12/2019 5:40 2.3 87 0.0 0 0.0 10.2 36.7 12
03/12/2019 5:50 2.3 87 0.0 0 0.0 10.2 36.6 14
03/12/2019 6:00 2.3 87 0.0 0 0.0 9.9 35.6 12
03/12/2019 6:10 2.1 88 0.0 0 0.0 10.0 35.9 14
03/12/2019 6:20 2.2 88 0.0 0 0.0 10.0 36.0 16
03/12/2019 6:30 2.2 88 0.0 0 0.0 9.8 35.2 15
03/12/2019 6:40 2.4 88 0.0 0 0.0 9.7 35.0 15
03/12/2019 6:50 2.3 87 0.0 0 0.0 9.4 33.7 14
03/12/2019 7:00 2.3 87 0.0 0 0.0 8.5 30.7 17
03/12/2019 7:10 2.3 87 0.0 0 0.0 8.7 31.4 16
03/12/2019 7:20 2.2 88 0.0 0 0.0 9.2 33.2 14
03/12/2019 7:30 2.3 87 0.0 0 0.0 9.7 34.8 12
03/12/2019 7:40 2.3 88 11.6 0 0.0 9.9 35.6 12
03/12/2019 7:50 2.3 87 30.5 340 0.0 9.7 35.0 15
03/12/2019 8:00 2.4 87 41.1 396 0.0 9.4 33.9 15
03/12/2019 8:10 2.4 87 53.4 172 0.0 9.4 33.7 14
03/12/2019 8:20 2.4 86 65.8 168 0.0 9.7 35.0 14
03/12/2019 8:30 2.5 86 62.2 20 0.0 9.7 35.1 10
03/12/2019 8:40 2.5 86 74.2 0 0.0 8.9 32.0 15
03/12/2019 8:50 2.6 86 96.4 0 0.0 9.1 32.7 13
03/12/2019 9:00 2.7 86 113.3 136 0.0 9.1 32.7 11
03/12/2019 9:10 2.8 85 128.6 264 0.0 9.6 34.5 12
03/12/2019 9:20 2.7 85 156.6 590 0.0 9.9 35.5 11
03/12/2019 9:30 2.9 84 159.3 468 0.0 10.1 36.3 9
03/12/2019 9:40 2.9 85 155.1 18 0.0 9.3 33.4 11
03/12/2019 9:50 3.1 84 187.5 600 0.0 9.7 34.8 7
03/12/2019 10:00 3.2 84 197.7 600 0.0 9.6 34.6 9
03/12/2019 10:10 3.2 84 174.5 170 0.0 9.2 33.3 6
03/12/2019 10:20 3.3 84 196.5 330 0.0 9.6 34.6 9
03/12/2019 10:30 3.4 83 273.0 600 0.0 9.1 32.7 8
03/12/2019 10:40 3.5 83 248.7 582 0.0 9.3 33.4 8
03/12/2019 10:50 3.5 82 314.7 320 0.0 9.5 34.3 9
03/12/2019 11:00 3.7 82 343.1 470 0.0 9.1 32.7 15
03/12/2019 11:10 3.7 82 399.7 562 0.0 9.6 34.6 11
03/12/2019 11:20 3.7 82 312.1 308 0.0 9.3 33.5 14
03/12/2019 11:30 3.6 83 348.2 476 0.0 9.5 34.0 11
03/12/2019 11:40 3.5 83 240.5 334 0.0 8.6 30.9 12
03/12/2019 11:50 3.6 83 372.0 334 0.0 8.4 30.2 9
03/12/2019 12:00 4.1 81 490.5 566 0.0 7.9 28.4 13
03/12/2019 12:10 4.1 81 415.4 482 0.0 8.1 29.1 13
03/12/2019 12:20 3.9 81 349.6 380 0.0 7.1 25.7 20
03/12/2019 12:30 3.8 81 390.4 372 0.0 6.4 23.2 35
03/12/2019 12:40 4.2 80 420.8 560 0.0 6.1 22.1 26
03/12/2019 12:50 4.1 80 438.5 600 0.0 6.1 21.9 21
03/12/2019 13:00 4.3 79 462.2 600 0.0 5.2 18.7 41
03/12/2019 13:10 4.3 79 221.3 202 0.0 5.7 20.7 28
03/12/2019 13:20 4.1 80 417.9 600 0.0 5.9 21.2 35
03/12/2019 13:30 4.1 79 413.5 600 0.0 5.2 18.9 44
03/12/2019 13:40 4.2 79 384.1 600 0.0 5.7 20.4 38
03/12/2019 13:50 4.2 79 358.3 600 0.0 6.1 22.1 43
03/12/2019 14:00 4.2 79 339.8 600 0.0 5.8 21.0 48
03/12/2019 14:10 4.1 78 320.0 600 0.0 5.8 20.9 37
03/12/2019 14:20 4.2 79 298.4 600 0.0 5.2 18.8 42
03/12/2019 14:30 4.2 78 276.8 600 0.0 5.3 18.9 46
03/12/2019 14:40 4.1 78 254.7 600 0.0 5.4 19.6 42
03/12/2019 14:50 4.0 78 232.3 600 0.0 4.9 17.8 28
03/12/2019 15:00 4.1 79 208.5 600 0.0 4.7 16.8 32
03/12/2019 15:10 4.1 79 183.6 600 0.0 4.9 17.7 39
03/12/2019 15:20 4.0 79 159.2 600 0.0 4.9 17.7 28
03/12/2019 15:30 3.8 80 136.9 600 0.0 4.2 15.3 26
03/12/2019 15:40 3.9 79 113.6 600 0.0 4.5 16.2 31
03/12/2019 15:50 4.0 79 90.8 600 0.0 4.5 16.2 35
03/12/2019 16:00 3.8 80 69.2 600 0.0 4.2 15.1 32
03/12/2019 16:10 3.6 81 46.6 548 0.0 3.9 14.0 34
03/12/2019 16:20 3.3 83 15.5 0 0.0 3.7 13.1 42
03/12/2019 16:30 3.0 84 0.0 0 0.0 3.1 11.0 45
03/12/2019 16:40 2.7 86 0.0 0 0.0 3.1 11.1 50
03/12/2019 16:50 2.6 86 0.0 0 0.0 2.8 10.0 49
03/12/2019 17:00 2.2 88 0.0 0 0.0 3.2 11.5 46
03/12/2019 17:10 2.4 88 0.0 0 0.0 2.7 9.8 50
03/12/2019 17:20 2.0 88 0.0 0 0.0 3.7 13.3 46
03/12/2019 17:30 2.0 89 0.0 0 0.0 3.8 13.6 47
03/12/2019 17:40 2.0 89 0.0 0 0.0 3.8 13.6 37
03/12/2019 17:50 2.1 88 0.0 0 0.0 3.5 12.6 38
03/12/2019 18:00 1.8 88 0.0 0 0.0 2.5 9.0 38
03/12/2019 18:10 1.6 90 0.0 0 0.0 2.1 7.5 13
03/12/2019 18:20 1.1 92 0.0 0 0.0 3.1 11.3 43
03/12/2019 18:30 1.3 92 0.0 0 0.0 4.0 14.5 44
03/12/2019 18:40 1.4 91 0.0 0 0.0 4.4 16.0 39
03/12/2019 18:50 1.3 91 0.0 0 0.0 3.8 13.8 34
03/12/2019 19:00 1.4 91 0.0 0 0.0 4.1 14.6 39
03/12/2019 19:10 1.2 91 0.0 0 0.0 4.0 14.5 37
03/12/2019 19:20 1.1 92 0.0 0 0.0 3.2 11.7 25
03/12/2019 19:30 0.8 92 0.0 0 0.0 2.8 10.1 31
03/12/2019 19:40 0.5 93 0.0 0 0.0 2.6 9.3 43
03/12/2019 19:50 0.4 94 0.0 0 0.0 3.2 11.5 49
03/12/2019 20:00 0.7 94 0.0 0 0.0 3.4 12.3 47
03/12/2019 20:10 0.7 93 0.0 0 0.0 3.6 13.0 33
03/12/2019 20:20 0.7 94 0.0 0 0.0 3.0 10.9 30
03/12/2019 20:30 0.3 93 0.0 0 0.0 2.6 9.3 23
03/12/2019 20:40 0.2 95 0.0 0 0.0 3.0 10.7 36
03/12/2019 20:50 0.2 95 0.0 0 0.0 2.2 7.9 42
03/12/2019 21:00 0.2 96 0.0 0 0.0 2.1 7.4 32
03/12/2019 21:10 0.1 95 0.0 0 0.0 2.1 7.5 33
03/12/2019 21:20 -0.0 95 0.0 0 0.0 2.9 10.4 41
03/12/2019 21:30 0.2 96 0.0 0 0.0 3.0 10.8 31
03/12/2019 21:40 0.1 95 0.0 0 0.0 2.8 10.0 31
03/12/2019 21:50 -0.1 95 0.0 0 0.0 2.7 9.8 26
03/12/2019 22:00 -0.2 96 0.0 0 0.0 2.8 10.0 23
03/12/2019 22:10 0.1 96 0.0 0 0.0 2.3 8.3 37
03/12/2019 22:20 -0.1 96 0.0 0 0.0 2.5 8.8 39
03/12/2019 22:30 0.0 96 0.0 0 0.0 2.8 10.0 24
03/12/2019 22:40 -0.3 96 0.0 0 0.0 3.1 11.3 21
03/12/2019 22:50 -0.2 96 0.0 0 0.0 2.8 10.0 27
03/12/2019 23:00 0.0 96 0.0 0 0.0 2.7 9.7 35
03/12/2019 23:10 0.0 96 0.0 0 0.0 3.0 10.7 36
03/12/2019 23:20 0.0 96 0.0 0 0.0 3.0 10.9 38
03/12/2019 23:30 -0.1 96 0.0 0 0.0 2.7 9.6 45
03/12/2019 23:40 -0.2 96 0.0 0 0.0 2.6 9.3 43
03/12/2019 23:50 -0.0 97 0.0 0 0.0 2.8 10.0 39
Anterior Página 1 de 1 Siguiente

NOTA: Tipo de datos según el color:
   - Valores diarios o 10 minutos correctos
   - Valores diarios calculados a partir de un número de datos 10 minutos menor que 144 y mayor que 120, o de un número de datos semihorarios menor que 48 y mayor que 40 (caso de las estaciones de Riegos de Navarra y del MARM)
   - Valores diez minutos estimados


Contacto        Enlaces        Aviso legal